Abel Santamaria Airport
MUSC : now visible

Airfield :











YOU CAN JOIN US ON...

 
LOGIN :

Register | Disclaimer

   EN    FR    IT 

 









Legend :    VFR   Marginal VFR   IFR   Intensive IFR   Very Intensive IFR
Visi :
Ceiling :
>= 8 km
>= 3000ft
5 to 8 km
1000 to 3000 ft
1500m to 5 km
500 to 1000 ft
800 to 1500m
200 to 500 ft
< 800m
< 200 ft
Symbols :   Thunderstorms  Fog  Heavy snow  Heavy precipitations  Wind > 20 kt






- Airport Elevation : 338 ft
- IATA code : SNU


MUSC - Abel Santamaria

CURRENT METAR :
  • 220750Z 06006KT 8000 BKN020 26/25 Q1012

EXPIRED METARs :
  • 220650Z 08005KT 8000 SCT020 25/24 Q1012
  • 220550Z 33003KT 8000 BKN020 25/24 Q1013

TAF MUSC
Valid from the 22 at 06:00 until the 23 at 06:00 UTC


220500Z 2206/2306 VRB03KT 9000 BKN020
TEMPO 2209/2221 VRB10KT 5000 SHRA SCT018CB BKN020
BECMG 2222/2224 09010KT
BECMG 2301/2303 VRB03KT
MUFH FIR / North America



MET'MAP, your aeronautical weather chart ! - Copyright ORBIFLY December 2007 - Disclaimer

ORBIFLY MET'MAP TEAM :

Programming & Development : Alexandra Zaïnal
Concept & original design : Baudouin d'Aumeries
Assistance for programming : Marc-Olivier Méhu
Technical & hardware support : Manuel Goepfert

Contact : metmap@orbifly.com




SOURCES & CREDITS :

   NOAA       Earth
Advisory